sensor_id;sensor_type;location;lat;lon;timestamp;pressure;altitude;pressure_sealevel;temperature;humidity
19789;BME280;10054;59.332;18.244;2023-04-04T00:01:04;102475.09;;;-3.77;90.66
19789;BME280;10054;59.332;18.244;2023-04-04T00:03:32;102467.61;;;-3.84;89.86
19789;BME280;10054;59.332;18.244;2023-04-04T00:06:01;102467.41;;;-3.91;89.56
19789;BME280;10054;59.332;18.244;2023-04-04T00:08:30;102470.70;;;-3.97;89.78
19789;BME280;10054;59.332;18.244;2023-04-04T00:10:59;102463.25;;;-4.02;89.42
19789;BME280;10054;59.332;18.244;2023-04-04T00:13:28;102462.22;;;-4.09;89.19
19789;BME280;10054;59.332;18.244;2023-04-04T00:15:57;102462.51;;;-4.14;89.56
19789;BME280;10054;59.332;18.244;2023-04-04T00:18:25;102458.60;;;-4.15;89.74
19789;BME280;10054;59.332;18.244;2023-04-04T00:20:54;102461.52;;;-4.19;89.50
19789;BME280;10054;59.332;18.244;2023-04-04T00:23:23;102450.70;;;-4.21;89.97
19789;BME280;10054;59.332;18.244;2023-04-04T00:25:52;102450.66;;;-4.23;90.09
19789;BME280;10054;59.332;18.244;2023-04-04T00:28:22;102449.75;;;-4.25;90.16
19789;BME280;10054;59.332;18.244;2023-04-04T00:30:50;102448.79;;;-4.28;90.37
19789;BME280;10054;59.332;18.244;2023-04-04T00:33:19;102447.00;;;-4.31;90.53
19789;BME280;10054;59.332;18.244;2023-04-04T00:35:48;102443.92;;;-4.34;91.07
19789;BME280;10054;59.332;18.244;2023-04-04T00:38:17;102440.11;;;-4.32;91.08
19789;BME280;10054;59.332;18.244;2023-04-04T00:40:47;102438.36;;;-4.33;91.11
19789;BME280;10054;59.332;18.244;2023-04-04T00:43:18;102434.45;;;-4.19;94.45
19789;BME280;10054;59.332;18.244;2023-04-04T00:45:46;102436.82;;;-4.11;95.42
19789;BME280;10054;59.332;18.244;2023-04-04T00:48:15;102431.95;;;-4.16;94.06
19789;BME280;10054;59.332;18.244;2023-04-04T00:50:44;102430.13;;;-4.20;93.29
19789;BME280;10054;59.332;18.244;2023-04-04T00:53:13;102431.75;;;-4.23;92.91
19789;BME280;10054;59.332;18.244;2023-04-04T00:55:42;102425.19;;;-4.28;92.51
19789;BME280;10054;59.332;18.244;2023-04-04T00:58:10;102416.55;;;-4.30;92.24
19789;BME280;10054;59.332;18.244;2023-04-04T01:00:39;102421.16;;;-4.34;91.97
19789;BME280;10054;59.332;18.244;2023-04-04T01:03:08;102423.69;;;-4.36;91.89
19789;BME280;10054;59.332;18.244;2023-04-04T01:05:40;102422.81;;;-4.36;91.91
19789;BME280;10054;59.332;18.244;2023-04-04T01:08:09;102416.84;;;-4.35;91.83
19789;BME280;10054;59.332;18.244;2023-04-04T01:10:39;102414.63;;;-4.37;91.38
19789;BME280;10054;59.332;18.244;2023-04-04T01:13:08;102412.06;;;-4.37;91.40
19789;BME280;10054;59.332;18.244;2023-04-04T01:15:37;102412.39;;;-4.41;91.08
19789;BME280;10054;59.332;18.244;2023-04-04T01:18:06;102406.32;;;-4.43;91.28
19789;BME280;10054;59.332;18.244;2023-04-04T01:20:40;102404.99;;;-4.44;91.22
19789;BME280;10054;59.332;18.244;2023-04-04T01:23:09;102404.94;;;-4.47;90.80
19789;BME280;10054;59.332;18.244;2023-04-04T01:25:39;102405.77;;;-4.48;90.55
19789;BME280;10054;59.332;18.244;2023-04-04T01:28:09;102402.33;;;-4.49;91.69
19789;BME280;10054;59.332;18.244;2023-04-04T01:30:40;102398.27;;;-4.39;94.19
19789;BME280;10054;59.332;18.244;2023-04-04T01:38:50;102399.33;;;-4.64;91.60
19789;BME280;10054;59.332;18.244;2023-04-04T01:41:17;102402.47;;;-4.74;91.36
19789;BME280;10054;59.332;18.244;2023-04-04T01:43:49;102399.25;;;-4.81;91.23
19789;BME280;10054;59.332;18.244;2023-04-04T01:46:19;102399.08;;;-4.87;91.65
19789;BME280;10054;59.332;18.244;2023-04-04T01:48:49;102399.41;;;-4.91;91.98
19789;BME280;10054;59.332;18.244;2023-04-04T01:51:21;102393.93;;;-4.87;92.28
19789;BME280;10054;59.332;18.244;2023-04-04T01:53:51;102392.73;;;-4.84;92.18
19789;BME280;10054;59.332;18.244;2023-04-04T01:56:19;102390.98;;;-4.85;92.26
19789;BME280;10054;59.332;18.244;2023-04-04T01:58:48;102385.84;;;-4.85;92.45
19789;BME280;10054;59.332;18.244;2023-04-04T02:01:16;102382.34;;;-4.87;92.24
19789;BME280;10054;59.332;18.244;2023-04-04T02:03:46;102378.45;;;-4.89;92.40
19789;BME280;10054;59.332;18.244;2023-04-04T02:06:14;102378.81;;;-4.91;92.19
19789;BME280;10054;59.332;18.244;2023-04-04T02:08:44;102380.34;;;-4.98;92.43
19789;BME280;10054;59.332;18.244;2023-04-04T02:11:13;102380.66;;;-5.01;92.70
19789;BME280;10054;59.332;18.244;2023-04-04T02:13:42;102376.48;;;-5.12;92.46
19789;BME280;10054;59.332;18.244;2023-04-04T02:16:11;102378.46;;;-5.17;92.67
19789;BME280;10054;59.332;18.244;2023-04-04T02:18:42;102377.44;;;-5.24;93.05
19789;BME280;10054;59.332;18.244;2023-04-04T02:21:11;102373.08;;;-5.26;93.47
19789;BME280;10054;59.332;18.244;2023-04-04T02:23:40;102374.63;;;-5.32;93.54
19789;BME280;10054;59.332;18.244;2023-04-04T02:26:09;102371.09;;;-5.35;93.58
19789;BME280;10054;59.332;18.244;2023-04-04T02:28:38;102370.55;;;-5.39;93.71
19789;BME280;10054;59.332;18.244;2023-04-04T02:31:07;102367.14;;;-5.38;94.20
19789;BME280;10054;59.332;18.244;2023-04-04T02:33:37;102370.59;;;-5.38;94.11
19789;BME280;10054;59.332;18.244;2023-04-04T02:36:07;102368.70;;;-5.29;94.89
19789;BME280;10054;59.332;18.244;2023-04-04T02:38:36;102362.24;;;-5.15;97.87
19789;BME280;10054;59.332;18.244;2023-04-04T02:41:05;102367.25;;;-5.19;97.11
19789;BME280;10054;59.332;18.244;2023-04-04T02:43:35;102363.38;;;-5.21;96.51
19789;BME280;10054;59.332;18.244;2023-04-04T02:46:06;102358.61;;;-5.23;96.00
19789;BME280;10054;59.332;18.244;2023-04-04T02:48:35;102362.33;;;-5.27;95.50
19789;BME280;10054;59.332;18.244;2023-04-04T02:51:04;102359.57;;;-5.34;95.04
19789;BME280;10054;59.332;18.244;2023-04-04T02:53:33;102358.60;;;-5.37;95.19
19789;BME280;10054;59.332;18.244;2023-04-04T02:56:04;102358.00;;;-5.43;95.01
19789;BME280;10054;59.332;18.244;2023-04-04T02:58:33;102357.41;;;-5.48;94.85
19789;BME280;10054;59.332;18.244;2023-04-04T03:01:03;102360.39;;;-5.49;95.04
19789;BME280;10054;59.332;18.244;2023-04-04T03:03:33;102356.48;;;-5.50;95.45
19789;BME280;10054;59.332;18.244;2023-04-04T03:06:03;102354.83;;;-5.48;95.84
19789;BME280;10054;59.332;18.244;2023-04-04T03:08:32;102352.67;;;-5.49;96.35
19789;BME280;10054;59.332;18.244;2023-04-04T03:11:02;102352.35;;;-5.45;96.73
19789;BME280;10054;59.332;18.244;2023-04-04T03:13:31;102353.59;;;-5.47;97.08
19789;BME280;10054;59.332;18.244;2023-04-04T03:16:02;102356.67;;;-5.44;97.48
19789;BME280;10054;59.332;18.244;2023-04-04T03:18:34;102355.75;;;-5.46;97.52
19789;BME280;10054;59.332;18.244;2023-04-04T03:21:03;102357.81;;;-5.49;98.16
19789;BME280;10054;59.332;18.244;2023-04-04T03:23:32;102354.83;;;-5.48;98.18
19789;BME280;10054;59.332;18.244;2023-04-04T03:26:01;102352.58;;;-5.52;98.15
19789;BME280;10054;59.332;18.244;2023-04-04T03:28:30;102350.47;;;-5.51;98.62
19789;BME280;10054;59.332;18.244;2023-04-04T03:31:04;102341.01;;;-5.52;98.97
19789;BME280;10054;59.332;18.244;2023-04-04T03:33:38;102345.33;;;-5.51;98.79
19789;BME280;10054;59.332;18.244;2023-04-04T03:36:11;102339.63;;;-5.55;98.77
19789;BME280;10054;59.332;18.244;2023-04-04T03:38:41;102332.64;;;-5.59;98.54
19789;BME280;10054;59.332;18.244;2023-04-04T03:41:11;102338.20;;;-5.59;98.66
19789;BME280;10054;59.332;18.244;2023-04-04T03:43:39;102336.87;;;-5.61;98.70
19789;BME280;10054;59.332;18.244;2023-04-04T03:46:08;102329.47;;;-5.65;98.83
19789;BME280;10054;59.332;18.244;2023-04-04T03:48:38;102334.94;;;-5.68;98.84
19789;BME280;10054;59.332;18.244;2023-04-04T03:51:08;102334.94;;;-5.68;99.47
19789;BME280;10054;59.332;18.244;2023-04-04T03:53:37;102335.30;;;-5.70;99.64
19789;BME280;10054;59.332;18.244;2023-04-04T03:56:06;102330.16;;;-5.70;99.84
19789;BME280;10054;59.332;18.244;2023-04-04T03:58:35;102330.98;;;-5.71;100.00
19789;BME280;10054;59.332;18.244;2023-04-04T04:01:04;102331.39;;;-5.72;99.94
19789;BME280;10054;59.332;18.244;2023-04-04T04:03:33;102327.53;;;-5.72;100.00
19789;BME280;10054;59.332;18.244;2023-04-04T04:06:02;102320.70;;;-5.71;100.00
19789;BME280;10054;59.332;18.244;2023-04-04T04:08:32;102315.20;;;-5.69;100.00
19789;BME280;10054;59.332;18.244;2023-04-04T04:11:05;102328.19;;;-5.65;100.00
19789;BME280;10054;59.332;18.244;2023-04-04T04:13:34;102326.22;;;-5.59;100.00
19789;BME280;10054;59.332;18.244;2023-04-04T04:16:05;102323.83;;;-5.53;100.00
19789;BME280;10054;59.332;18.244;2023-04-04T04:18:35;102325.67;;;-5.49;100.00
19789;BME280;10054;59.332;18.244;2023-04-04T04:21:06;102315.89;;;-5.46;100.00
19789;BME280;10054;59.332;18.244;2023-04-04T04:23:36;102314.28;;;-5.43;100.00
19789;BME280;10054;59.332;18.244;2023-04-04T04:26:05;102317.83;;;-5.39;100.00
19789;BME280;10054;59.332;18.244;2023-04-04T04:28:34;102311.58;;;-5.33;100.00
19789;BME280;10054;59.332;18.244;2023-04-04T04:31:06;102314.78;;;-5.26;100.00
19789;BME280;10054;59.332;18.244;2023-04-04T04:33:36;102311.16;;;-5.17;100.00
19789;BME280;10054;59.332;18.244;2023-04-04T04:36:06;102317.11;;;-5.04;100.00
19789;BME280;10054;59.332;18.244;2023-04-04T04:38:36;102309.82;;;-4.88;100.00
19789;BME280;10054;59.332;18.244;2023-04-04T04:41:05;102309.45;;;-4.71;100.00
19789;BME280;10054;59.332;18.244;2023-04-04T04:43:36;102307.91;;;-4.48;100.00
19789;BME280;10054;59.332;18.244;2023-04-04T04:46:05;102308.53;;;-4.22;100.00
19789;BME280;10054;59.332;18.244;2023-04-04T04:48:35;102302.03;;;-3.89;100.00
19789;BME280;10054;59.332;18.244;2023-04-04T04:51:04;102300.30;;;-3.51;100.00
19789;BME280;10054;59.332;18.244;2023-04-04T04:53:37;102299.76;;;-3.16;100.00
19789;BME280;10054;59.332;18.244;2023-04-04T04:56:06;102300.34;;;-2.86;100.00
19789;BME280;10054;59.332;18.244;2023-04-04T04:58:36;102293.58;;;-2.79;100.00
19789;BME280;10054;59.332;18.244;2023-04-04T05:01:05;102286.37;;;-2.74;100.00
19789;BME280;10054;59.332;18.244;2023-04-04T05:03:36;102285.22;;;-2.66;100.00
19789;BME280;10054;59.332;18.244;2023-04-04T05:06:06;102289.71;;;-2.56;100.00
19789;BME280;10054;59.332;18.244;2023-04-04T05:08:35;102280.86;;;-2.45;100.00
19789;BME280;10054;59.332;18.244;2023-04-04T05:11:06;102291.02;;;-2.31;100.00
19789;BME280;10054;59.332;18.244;2023-04-04T05:13:35;102289.52;;;-2.15;100.00
19789;BME280;10054;59.332;18.244;2023-04-04T05:16:05;102288.35;;;-2.08;100.00
19789;BME280;10054;59.332;18.244;2023-04-04T05:18:35;102284.17;;;-2.00;100.00
19789;BME280;10054;59.332;18.244;2023-04-04T05:21:04;102291.30;;;-1.85;100.00
19789;BME280;10054;59.332;18.244;2023-04-04T05:23:33;102280.86;;;-1.61;100.00
19789;BME280;10054;59.332;18.244;2023-04-04T05:26:02;102280.78;;;-1.34;100.00
19789;BME280;10054;59.332;18.244;2023-04-04T05:28:38;102271.65;;;-1.04;100.00
19789;BME280;10054;59.332;18.244;2023-04-04T05:31:07;102275.81;;;-0.80;100.00
19789;BME280;10054;59.332;18.244;2023-04-04T05:33:37;102279.42;;;-0.61;100.00
19789;BME280;10054;59.332;18.244;2023-04-04T05:36:07;102281.27;;;-0.49;100.00
19789;BME280;10054;59.332;18.244;2023-04-04T05:38:39;102277.86;;;-0.45;100.00
19789;BME280;10054;59.332;18.244;2023-04-04T05:41:09;102285.16;;;-0.49;100.00
19789;BME280;10054;59.332;18.244;2023-04-04T05:43:38;102281.77;;;-0.42;100.00
19789;BME280;10054;59.332;18.244;2023-04-04T05:46:08;102283.59;;;-0.32;99.88
19789;BME280;10054;59.332;18.244;2023-04-04T05:48:39;102281.89;;;-0.28;99.59
19789;BME280;10054;59.332;18.244;2023-04-04T05:51:08;102278.11;;;-0.16;99.21
19789;BME280;10054;59.332;18.244;2023-04-04T05:53:41;102273.80;;;-0.14;98.81
19789;BME280;10054;59.332;18.244;2023-04-04T05:56:11;102278.21;;;0.00;97.79
19789;BME280;10054;59.332;18.244;2023-04-04T05:58:41;102280.47;;;0.13;97.84
19789;BME280;10054;59.332;18.244;2023-04-04T06:01:10;102272.70;;;0.16;97.75
19789;BME280;10054;59.332;18.244;2023-04-04T06:03:40;102272.27;;;0.17;97.07
19789;BME280;10054;59.332;18.244;2023-04-04T06:06:10;102273.60;;;0.21;95.67
19789;BME280;10054;59.332;18.244;2023-04-04T06:08:39;102270.12;;;0.18;94.91
19789;BME280;10054;59.332;18.244;2023-04-04T06:11:08;102274.02;;;0.19;94.96
19789;BME280;10054;59.332;18.244;2023-04-04T06:13:37;102275.33;;;0.21;95.21
19789;BME280;10054;59.332;18.244;2023-04-04T06:16:08;102273.13;;;0.16;94.04
19789;BME280;10054;59.332;18.244;2023-04-04T06:18:36;102274.42;;;0.16;93.83
19789;BME280;10054;59.332;18.244;2023-04-04T06:21:05;102271.38;;;0.13;94.57
19789;BME280;10054;59.332;18.244;2023-04-04T06:23:35;102272.33;;;0.24;94.64
19789;BME280;10054;59.332;18.244;2023-04-04T06:26:04;102281.01;;;0.29;94.43
19789;BME280;10054;59.332;18.244;2023-04-04T06:28:34;102276.36;;;0.49;95.24
19789;BME280;10054;59.332;18.244;2023-04-04T06:31:07;102273.81;;;0.58;91.91
19789;BME280;10054;59.332;18.244;2023-04-04T06:33:36;102274.67;;;0.55;91.57
19789;BME280;10054;59.332;18.244;2023-04-04T06:36:06;102275.48;;;0.45;91.27
19789;BME280;10054;59.332;18.244;2023-04-04T06:38:35;102274.56;;;0.37;93.01
19789;BME280;10054;59.332;18.244;2023-04-04T06:41:05;102275.03;;;0.43;92.65
19789;BME280;10054;59.332;18.244;2023-04-04T06:43:34;102271.97;;;0.37;90.63
19789;BME280;10054;59.332;18.244;2023-04-04T06:46:04;102271.55;;;0.39;92.56
19789;BME280;10054;59.332;18.244;2023-04-04T06:48:33;102274.61;;;0.45;91.64
19789;BME280;10054;59.332;18.244;2023-04-04T06:51:06;102269.45;;;0.49;92.69
19789;BME280;10054;59.332;18.244;2023-04-04T06:53:37;102266.89;;;0.58;91.86
19789;BME280;10054;59.332;18.244;2023-04-04T06:56:08;102269.02;;;0.50;90.14
19789;BME280;10054;59.332;18.244;2023-04-04T06:58:37;102265.16;;;0.57;90.98
19789;BME280;10054;59.332;18.244;2023-04-04T07:01:06;102267.75;;;0.57;90.80
19789;BME280;10054;59.332;18.244;2023-04-04T07:03:34;102266.88;;;0.55;90.87
19789;BME280;10054;59.332;18.244;2023-04-04T07:06:05;102269.96;;;0.65;92.09
19789;BME280;10054;59.332;18.244;2023-04-04T07:08:33;102272.16;;;0.74;88.29
19789;BME280;10054;59.332;18.244;2023-04-04T07:11:03;102271.71;;;0.77;90.02
19789;BME280;10054;59.332;18.244;2023-04-04T07:13:32;102267.81;;;0.77;90.08
19789;BME280;10054;59.332;18.244;2023-04-04T07:16:02;102266.98;;;0.86;89.69
19789;BME280;10054;59.332;18.244;2023-04-04T07:18:31;102268.28;;;0.86;89.14
19789;BME280;10054;59.332;18.244;2023-04-04T07:21:00;102269.54;;;0.75;86.17
19789;BME280;10054;59.332;18.244;2023-04-04T07:23:28;102267.82;;;0.79;88.38
19789;BME280;10054;59.332;18.244;2023-04-04T07:25:57;102271.31;;;0.84;88.19
19789;BME280;10054;59.332;18.244;2023-04-04T07:28:26;102268.28;;;0.86;87.41
19789;BME280;10054;59.332;18.244;2023-04-04T07:30:59;102275.25;;;0.96;86.80
19789;BME280;10054;59.332;18.244;2023-04-04T07:33:28;102275.27;;;1.02;87.16
19789;BME280;10054;59.332;18.244;2023-04-04T07:36:00;102267.95;;;1.17;88.20
19789;BME280;10054;59.332;18.244;2023-04-04T07:38:29;102269.28;;;1.29;86.09
19789;BME280;10054;59.332;18.244;2023-04-04T07:40:58;102271.02;;;1.30;84.78
19789;BME280;10054;59.332;18.244;2023-04-04T07:43:26;102266.68;;;1.27;85.10
19789;BME280;10054;59.332;18.244;2023-04-04T07:45:55;102271.02;;;1.30;82.01
19789;BME280;10054;59.332;18.244;2023-04-04T07:48:24;102268.00;;;1.37;81.35
19789;BME280;10054;59.332;18.244;2023-04-04T07:50:54;102266.28;;;1.43;82.03
19789;BME280;10054;59.332;18.244;2023-04-04T07:53:23;102275.81;;;1.46;80.73
19789;BME280;10054;59.332;18.244;2023-04-04T07:55:51;102280.13;;;1.50;80.11
19789;BME280;10054;59.332;18.244;2023-04-04T07:58:20;102274.48;;;1.49;80.23
19789;BME280;10054;59.332;18.244;2023-04-04T08:00:48;102277.96;;;1.54;79.47
19789;BME280;10054;59.332;18.244;2023-04-04T08:03:17;102277.53;;;1.56;80.79
19789;BME280;10054;59.332;18.244;2023-04-04T08:05:46;102274.06;;;1.55;77.18
19789;BME280;10054;59.332;18.244;2023-04-04T08:08:14;102283.61;;;1.41;75.89
19789;BME280;10054;59.332;18.244;2023-04-04T08:10:46;102279.72;;;1.44;76.72
19789;BME280;10054;59.332;18.244;2023-04-04T08:13:15;102276.67;;;1.43;75.62
19789;BME280;10054;59.332;18.244;2023-04-04T08:15:44;102268.88;;;1.45;75.47
19789;BME280;10054;59.332;18.244;2023-04-04T08:18:13;102272.33;;;1.54;76.31
19789;BME280;10054;59.332;18.244;2023-04-04T08:20:42;102285.35;;;1.47;72.59
19789;BME280;10054;59.332;18.244;2023-04-04T08:23:11;102287.48;;;1.32;71.83
19789;BME280;10054;59.332;18.244;2023-04-04T08:25:40;102288.36;;;1.34;74.04
19789;BME280;10054;59.332;18.244;2023-04-04T08:28:10;102290.09;;;1.35;74.15
19789;BME280;10054;59.332;18.244;2023-04-04T08:30:39;102285.77;;;1.39;74.29
19789;BME280;10054;59.332;18.244;2023-04-04T08:33:07;102284.46;;;1.36;73.67
19789;BME280;10054;59.332;18.244;2023-04-04T08:35:36;102287.48;;;1.30;68.86
19789;BME280;10054;59.332;18.244;2023-04-04T08:38:05;102290.09;;;1.30;70.23
19789;BME280;10054;59.332;18.244;2023-04-04T08:40:34;102290.52;;;1.33;67.60
19789;BME280;10054;59.332;18.244;2023-04-04T08:43:04;102284.03;;;1.35;69.25
19789;BME280;10054;59.332;18.244;2023-04-04T08:45:34;102287.94;;;1.38;67.07
19789;BME280;10054;59.332;18.244;2023-04-04T08:48:04;102287.06;;;1.36;66.79
19789;BME280;10054;59.332;18.244;2023-04-04T08:50:37;102286.65;;;1.44;69.45
19789;BME280;10054;59.332;18.244;2023-04-04T08:53:07;102280.56;;;1.52;70.36
19789;BME280;10054;59.332;18.244;2023-04-04T08:55:37;102279.27;;;1.57;68.60
19789;BME280;10054;59.332;18.244;2023-04-04T08:58:06;102285.34;;;1.62;67.66
19789;BME280;10054;59.332;18.244;2023-04-04T09:00:35;102279.28;;;1.68;68.36
19789;BME280;10054;59.332;18.244;2023-04-04T09:10:30;102275.38;;;1.90;70.71
19789;BME280;10054;59.332;18.244;2023-04-04T09:13:00;102264.09;;;1.99;69.40
19789;BME280;10054;59.332;18.244;2023-04-04T09:15:32;102264.52;;;2.09;69.15
19789;BME280;10054;59.332;18.244;2023-04-04T09:18:04;102265.82;;;2.14;67.02
19789;BME280;10054;59.332;18.244;2023-04-04T09:20:35;102268.42;;;2.17;67.60
19789;BME280;10054;59.332;18.244;2023-04-04T09:23:09;102264.95;;;2.15;68.29
19789;BME280;10054;59.332;18.244;2023-04-04T09:25:46;102267.12;;;2.17;68.91
19789;BME280;10054;59.332;18.244;2023-04-04T09:28:16;102264.03;;;2.25;69.02
19789;BME280;10054;59.332;18.244;2023-04-04T09:30:49;102268.79;;;2.35;68.26
19789;BME280;10054;59.332;18.244;2023-04-04T09:33:19;102267.04;;;2.41;68.71
19789;BME280;10054;59.332;18.244;2023-04-04T09:35:57;102266.12;;;2.56;69.92
19789;BME280;10054;59.332;18.244;2023-04-04T09:38:26;102264.34;;;2.69;68.18
19789;BME280;10054;59.332;18.244;2023-04-04T09:40:56;102260.02;;;2.68;68.33
19789;BME280;10054;59.332;18.244;2023-04-04T09:43:25;102257.00;;;2.60;67.19
19789;BME280;10054;59.332;18.244;2023-04-04T09:45:56;102256.97;;;2.70;66.33
19789;BME280;10054;59.332;18.244;2023-04-04T09:48:27;102254.34;;;2.73;67.46
19789;BME280;10054;59.332;18.244;2023-04-04T09:50:57;102255.62;;;2.77;67.52
19789;BME280;10054;59.332;18.244;2023-04-04T09:53:26;102259.07;;;2.85;66.32
19789;BME280;10054;59.332;18.244;2023-04-04T09:55:56;102263.82;;;2.92;66.00
19789;BME280;10054;59.332;18.244;2023-04-04T09:58:28;102260.34;;;2.93;64.51
19789;BME280;10054;59.332;18.244;2023-04-04T10:01:03;102265.12;;;2.93;65.70
19789;BME280;10054;59.332;18.244;2023-04-04T10:03:33;102262.02;;;2.98;62.35
19789;BME280;10054;59.332;18.244;2023-04-04T10:06:06;102255.48;;;3.02;63.64
19789;BME280;10054;59.332;18.244;2023-04-04T10:08:38;102257.17;;;3.12;63.77
19789;BME280;10054;59.332;18.244;2023-04-04T10:11:08;102256.80;;;3.00;61.28
19789;BME280;10054;59.332;18.244;2023-04-04T10:13:37;102255.04;;;3.04;62.43
19789;BME280;10054;59.332;18.244;2023-04-04T10:16:10;102257.17;;;3.10;62.03
19789;BME280;10054;59.332;18.244;2023-04-04T10:18:39;102257.66;;;3.01;59.89
19789;BME280;10054;59.332;18.244;2023-04-04T10:21:08;102255.12;;;2.94;60.20
19789;BME280;10054;59.332;18.244;2023-04-04T10:23:37;102258.22;;;2.82;59.67
19789;BME280;10054;59.332;18.244;2023-04-04T10:26:07;102253.83;;;2.91;61.47
19789;BME280;10054;59.332;18.244;2023-04-04T10:28:36;102248.10;;;3.01;61.42
19789;BME280;10054;59.332;18.244;2023-04-04T10:31:24;102253.72;;;3.08;59.01
19789;BME280;10054;59.332;18.244;2023-04-04T10:36:53;102247.16;;;3.16;60.54
19789;BME280;10054;59.332;18.244;2023-04-04T10:39:31;102244.53;;;3.19;60.87
19789;BME280;10054;59.332;18.244;2023-04-04T10:41:56;102244.02;;;3.30;59.63
19789;BME280;10054;59.332;18.244;2023-04-04T10:44:32;102238.80;;;3.32;61.11
19789;BME280;10054;59.332;18.244;2023-04-04T10:47:12;102241.42;;;3.28;59.87
19789;BME280;10054;59.332;18.244;2023-04-04T10:49:36;102232.70;;;3.34;60.87
19789;BME280;10054;59.332;18.244;2023-04-04T10:52:06;102226.16;;;3.37;62.50
19789;BME280;10054;59.332;18.244;2023-04-04T10:54:36;102232.20;;;3.42;59.16
19789;BME280;10054;59.332;18.244;2023-04-04T10:57:05;102234.36;;;3.44;60.37
19789;BME280;10054;59.332;18.244;2023-04-04T10:59:54;102230.41;;;3.49;59.97
19789;BME280;10054;59.332;18.244;2023-04-04T11:05:34;102233.02;;;3.49;60.92
19789;BME280;10054;59.332;18.244;2023-04-04T11:08:20;102227.22;;;3.68;60.67
19789;BME280;10054;59.332;18.244;2023-04-04T11:10:54;102221.93;;;3.72;61.34
19789;BME280;10054;59.332;18.244;2023-04-04T11:13:32;102221.81;;;3.86;61.20
19789;BME280;10054;59.332;18.244;2023-04-04T11:16:06;102219.23;;;3.83;59.40
19789;BME280;10054;59.332;18.244;2023-04-04T11:21:19;102209.32;;;3.72;59.22
19789;BME280;10054;59.332;18.244;2023-04-04T11:29:00;102206.77;;;3.69;57.83
19789;BME280;10054;59.332;18.244;2023-04-04T11:34:06;102205.45;;;3.70;58.46
19789;BME280;10054;59.332;18.244;2023-04-04T11:39:14;102201.41;;;3.81;58.84
19789;BME280;10054;59.332;18.244;2023-04-04T11:44:24;102195.72;;;3.84;57.77
19789;BME280;10054;59.332;18.244;2023-04-04T11:46:59;102198.74;;;3.87;56.75
19789;BME280;10054;59.332;18.244;2023-04-04T11:49:27;102199.70;;;3.77;56.44
19789;BME280;10054;59.332;18.244;2023-04-04T11:51:58;102203.13;;;3.83;56.96
19789;BME280;10054;59.332;18.244;2023-04-04T11:54:28;102193.53;;;3.85;56.07
19789;BME280;10054;59.332;18.244;2023-04-04T11:56:58;102193.98;;;3.83;55.94
19789;BME280;10054;59.332;18.244;2023-04-04T11:59:28;102192.69;;;3.83;55.77
19789;BME280;10054;59.332;18.244;2023-04-04T12:01:58;102193.02;;;3.93;56.80
19789;BME280;10054;59.332;18.244;2023-04-04T12:04:29;102188.31;;;3.85;54.22
19789;BME280;10054;59.332;18.244;2023-04-04T12:06:58;102183.98;;;3.83;55.57
19789;BME280;10054;59.332;18.244;2023-04-04T12:09:29;102181.76;;;3.88;56.94
19789;BME280;10054;59.332;18.244;2023-04-04T12:11:58;102187.78;;;3.95;56.78
19789;BME280;10054;59.332;18.244;2023-04-04T12:14:27;102181.18;;;4.03;56.52
19789;BME280;10054;59.332;18.244;2023-04-04T12:16:56;102186.44;;;4.00;56.26
19789;BME280;10054;59.332;18.244;2023-04-04T12:19:27;102183.45;;;3.92;54.02
19789;BME280;10054;59.332;18.244;2023-04-04T12:21:58;102178.99;;;4.04;55.63
19789;BME280;10054;59.332;18.244;2023-04-04T12:24:26;102178.06;;;4.09;55.50
19789;BME280;10054;59.332;18.244;2023-04-04T12:26:55;102181.05;;;4.15;55.27
19789;BME280;10054;59.332;18.244;2023-04-04T12:29:28;102174.36;;;4.28;55.77
19789;BME280;10054;59.332;18.244;2023-04-04T12:31:59;102170.92;;;4.25;54.53
19789;BME280;10054;59.332;18.244;2023-04-04T12:34:39;102169.09;;;4.33;55.04
19789;BME280;10054;59.332;18.244;2023-04-04T12:37:01;102167.25;;;4.41;54.53
19789;BME280;10054;59.332;18.244;2023-04-04T12:39:30;102165.84;;;4.46;53.13
19789;BME280;10054;59.332;18.244;2023-04-04T12:42:01;102159.80;;;4.45;53.55
19789;BME280;10054;59.332;18.244;2023-04-04T12:44:35;102160.16;;;4.48;52.85
19789;BME280;10054;59.332;18.244;2023-04-04T12:47:06;102157.11;;;4.48;53.27
19789;BME280;10054;59.332;18.244;2023-04-04T12:49:40;102158.78;;;4.54;53.80
19789;BME280;10054;59.332;18.244;2023-04-04T12:52:29;102156.05;;;4.63;54.30
19789;BME280;10054;59.332;18.244;2023-04-04T12:55:08;102154.72;;;4.65;53.02
19789;BME280;10054;59.332;18.244;2023-04-04T12:57:38;102151.30;;;4.59;52.78
19789;BME280;10054;59.332;18.244;2023-04-04T13:00:08;102144.30;;;4.61;53.89
19789;BME280;10054;59.332;18.244;2023-04-04T13:02:37;102141.65;;;4.65;53.24
19789;BME280;10054;59.332;18.244;2023-04-04T13:05:06;102139.52;;;4.61;52.67
19789;BME280;10054;59.332;18.244;2023-04-04T13:07:38;102145.25;;;4.56;52.22
19789;BME280;10054;59.332;18.244;2023-04-04T13:10:12;102143.52;;;4.55;52.68
19789;BME280;10054;59.332;18.244;2023-04-04T13:12:56;102145.31;;;4.51;52.79
19789;BME280;10054;59.332;18.244;2023-04-04T13:15:47;102146.52;;;4.59;52.79
19789;BME280;10054;59.332;18.244;2023-04-04T13:18:21;102137.11;;;4.46;51.81
19789;BME280;10054;59.332;18.244;2023-04-04T13:20:52;102135.28;;;4.52;52.85
19789;BME280;10054;59.332;18.244;2023-04-04T13:23:21;102138.70;;;4.57;52.39
19789;BME280;10054;59.332;18.244;2023-04-04T13:25:50;102135.17;;;4.60;51.73
19789;BME280;10054;59.332;18.244;2023-04-04T13:28:19;102128.60;;;4.63;52.75
19789;BME280;10054;59.332;18.244;2023-04-04T13:30:48;102126.53;;;4.55;51.66
19789;BME280;10054;59.332;18.244;2023-04-04T13:33:17;102128.87;;;4.45;51.22
19789;BME280;10054;59.332;18.244;2023-04-04T13:35:46;102127.61;;;4.42;51.99